createdAt,value
2022-10-05T00:02:19.688Z,11.87
2022-10-05T00:04:48.358Z,12.10
2022-10-05T00:07:20.916Z,12.10
2022-10-05T00:09:57.444Z,12.07
2022-10-05T00:12:25.956Z,12.20
2022-10-05T00:14:56.771Z,11.80
2022-10-05T00:17:29.721Z,12.10
2022-10-05T00:19:57.131Z,12.17
2022-10-05T00:22:31.756Z,11.77
2022-10-05T00:25:00.978Z,11.90
2022-10-05T00:27:39.274Z,12.17
2022-10-05T00:30:18.239Z,11.90
2022-10-05T00:32:45.767Z,11.93
2022-10-05T00:35:14.201Z,11.83
2022-10-05T00:37:42.040Z,11.87
2022-10-05T00:40:18.956Z,11.73
2022-10-05T00:43:25.862Z,11.90
2022-10-05T00:46:08.839Z,11.90
2022-10-05T00:48:53.646Z,11.67
2022-10-05T00:51:35.984Z,12.00
2022-10-05T00:54:02.793Z,11.60
2022-10-05T00:56:32.399Z,12.17
2022-10-05T00:59:13.968Z,12.10
2022-10-05T01:02:03.009Z,12.03
2022-10-05T01:04:40.335Z,11.70
2022-10-05T01:07:37.864Z,11.87
2022-10-05T01:10:29.166Z,11.90
2022-10-05T01:13:01.904Z,11.87
2022-10-05T01:15:41.373Z,11.80
2022-10-05T01:18:17.235Z,11.87
2022-10-05T01:20:59.780Z,11.67
2022-10-05T01:23:58.649Z,11.83
2022-10-05T01:26:37.548Z,11.80
2022-10-05T01:29:12.916Z,11.97
2022-10-05T01:31:58.170Z,12.10
2022-10-05T01:34:35.611Z,11.97
2022-10-05T01:37:15.112Z,12.00
2022-10-05T01:39:50.908Z,12.07
2022-10-05T01:42:23.887Z,11.70
2022-10-05T01:44:59.261Z,11.97
2022-10-05T01:47:43.436Z,11.90
2022-10-05T01:50:31.452Z,12.10
2022-10-05T01:53:13.352Z,12.20
2022-10-05T01:55:40.278Z,11.63
2022-10-05T01:58:11.564Z,11.90
2022-10-05T02:01:06.635Z,11.77
2022-10-05T02:03:45.065Z,11.70
2022-10-05T02:06:18.755Z,11.90
2022-10-05T02:08:58.685Z,12.20
2022-10-05T02:11:25.992Z,12.20
2022-10-05T02:13:55.321Z,12.13
2022-10-05T02:16:31.342Z,12.40
2022-10-05T02:19:00.794Z,12.50
2022-10-05T02:21:28.122Z,12.60
2022-10-05T02:24:00.091Z,12.53
2022-10-05T02:26:28.679Z,12.27
2022-10-05T02:29:00.034Z,12.47
2022-10-05T02:31:45.774Z,12.30
2022-10-05T02:34:31.498Z,12.40
2022-10-05T02:37:16.902Z,12.53
2022-10-05T02:39:55.277Z,12.27
2022-10-05T02:42:32.711Z,12.43
2022-10-05T02:45:26.324Z,12.30
2022-10-05T02:48:18.037Z,12.57
2022-10-05T02:51:04.778Z,12.80
2022-10-05T02:53:55.363Z,12.50
2022-10-05T02:56:30.195Z,12.17
2022-10-05T02:59:22.096Z,12.33
2022-10-05T03:02:20.921Z,12.43
2022-10-05T03:05:17.197Z,11.90
2022-10-05T03:08:03.827Z,12.17
2022-10-05T03:10:50.681Z,12.50
2022-10-05T03:13:25.016Z,12.77
2022-10-05T03:16:14.096Z,12.70
2022-10-05T03:18:59.634Z,12.63
2022-10-05T03:21:45.467Z,12.83
2022-10-05T03:24:31.213Z,13.03
2022-10-05T03:27:08.643Z,12.50
2022-10-05T03:30:05.411Z,12.63
2022-10-05T03:33:03.109Z,12.80
2022-10-05T03:35:43.140Z,12.30
2022-10-05T03:38:13.005Z,12.30
2022-10-05T03:41:10.922Z,12.47
2022-10-05T03:44:17.682Z,12.57
2022-10-05T03:47:11.089Z,12.33
2022-10-05T03:49:56.724Z,12.80
2022-10-05T03:52:30.586Z,12.40
2022-10-05T03:55:03.336Z,12.70
2022-10-05T03:57:36.340Z,12.50
2022-10-05T04:00:06.715Z,12.77
2022-10-05T04:03:00.299Z,12.10
2022-10-05T04:05:32.370Z,12.40
2022-10-05T04:08:11.854Z,12.70
2022-10-05T04:10:44.008Z,12.60
2022-10-05T04:13:15.528Z,12.60
2022-10-05T04:15:50.734Z,12.17
2022-10-05T04:18:26.192Z,12.23
2022-10-05T04:20:59.516Z,12.40
2022-10-05T04:23:41.917Z,12.70
2022-10-05T04:26:16.691Z,12.63
2022-10-05T04:29:01.145Z,12.57
2022-10-05T04:31:53.095Z,12.30
2022-10-05T04:34:47.882Z,12.37
2022-10-05T04:37:25.388Z,12.60
2022-10-05T04:40:14.753Z,12.37
2022-10-05T04:43:14.074Z,12.37
2022-10-05T04:46:04.908Z,12.60
2022-10-05T04:48:46.000Z,12.63
2022-10-05T04:51:40.415Z,12.63
2022-10-05T04:54:34.758Z,12.47
2022-10-05T04:57:12.744Z,12.90
2022-10-05T05:00:05.598Z,13.13
2022-10-05T05:03:10.289Z,12.90
2022-10-05T05:06:15.406Z,13.10
2022-10-05T05:08:58.068Z,13.03
2022-10-05T05:11:54.854Z,13.33
2022-10-05T05:14:46.878Z,13.50
2022-10-05T05:17:40.717Z,13.17
2022-10-05T05:20:10.462Z,13.20
2022-10-05T05:23:03.313Z,13.20
2022-10-05T05:25:53.688Z,13.50
2022-10-05T05:28:35.975Z,13.03
2022-10-05T05:31:15.445Z,13.33
2022-10-05T05:33:55.330Z,12.90
2022-10-05T05:36:39.307Z,12.83
2022-10-05T05:39:21.827Z,12.97
2022-10-05T05:42:02.048Z,13.07
2022-10-05T05:44:40.936Z,12.73
2022-10-05T05:47:24.073Z,13.33
2022-10-05T05:50:07.273Z,12.87
2022-10-05T05:52:52.721Z,12.70
2022-10-05T05:55:29.734Z,12.53
2022-10-05T05:58:04.250Z,12.60
2022-10-05T06:00:56.125Z,13.40
2022-10-05T06:03:26.321Z,13.03
2022-10-05T06:06:04.306Z,13.50
2022-10-05T06:08:41.936Z,12.87
2022-10-05T06:11:51.122Z,13.00
2022-10-05T06:14:28.715Z,12.80
2022-10-05T06:17:15.165Z,13.03
2022-10-05T06:19:44.106Z,13.07
2022-10-05T06:22:17.273Z,13.57
2022-10-05T06:24:59.904Z,13.50
2022-10-05T06:27:38.312Z,14.03
2022-10-05T06:30:15.297Z,13.43
2022-10-05T06:33:15.297Z,13.50
2022-10-05T06:36:13.900Z,14.03
2022-10-05T06:38:47.973Z,14.00
2022-10-05T06:41:41.340Z,13.37
2022-10-05T06:44:28.202Z,13.60
2022-10-05T06:47:35.849Z,13.60
2022-10-05T06:50:45.942Z,12.90
2022-10-05T06:53:40.809Z,12.97
2022-10-05T06:56:15.809Z,13.10
2022-10-05T06:58:45.391Z,13.13
2022-10-05T07:01:44.770Z,13.83
2022-10-05T07:04:35.976Z,12.80
2022-10-05T07:07:36.610Z,13.00
2022-10-05T07:10:40.413Z,12.67
2022-10-05T07:13:13.971Z,13.00
2022-10-05T07:15:49.873Z,13.03
2022-10-05T07:19:03.811Z,13.13
2022-10-05T07:21:59.239Z,13.10
2022-10-05T07:24:32.009Z,12.50
2022-10-05T07:27:12.763Z,12.30
2022-10-05T07:29:42.974Z,12.93
2022-10-05T07:32:40.707Z,12.50
2022-10-05T07:36:00.495Z,12.50
2022-10-05T07:38:36.146Z,12.50
2022-10-05T07:41:32.380Z,12.00
2022-10-05T07:44:13.198Z,11.67
2022-10-05T07:46:54.286Z,11.67
2022-10-05T07:49:38.834Z,11.53
2022-10-05T07:52:13.367Z,11.00
2022-10-05T07:54:47.643Z,11.07
2022-10-05T07:57:20.374Z,11.00
2022-10-05T08:00:00.422Z,11.53
2022-10-05T08:02:34.097Z,10.67
2022-10-05T08:05:15.819Z,11.60
2022-10-05T08:07:43.304Z,11.77
2022-10-05T08:10:28.076Z,11.63
2022-10-05T08:13:20.321Z,11.60
2022-10-05T08:15:53.872Z,11.57
2022-10-05T08:18:35.977Z,12.17
2022-10-05T08:21:06.198Z,12.23
2022-10-05T08:23:50.963Z,12.20
2022-10-05T08:26:45.864Z,12.47
2022-10-05T08:29:31.443Z,11.33
2022-10-05T08:32:02.633Z,11.20
2022-10-05T08:34:51.300Z,12.17
2022-10-05T08:37:23.164Z,12.07
2022-10-05T08:40:24.557Z,11.77
2022-10-05T08:43:13.269Z,11.53
2022-10-05T08:46:30.022Z,11.80
2022-10-05T08:49:15.709Z,11.80
2022-10-05T08:52:31.553Z,11.93
2022-10-05T08:55:10.159Z,11.90
2022-10-05T08:58:03.343Z,12.17
2022-10-05T09:00:56.211Z,11.23
2022-10-05T09:03:50.926Z,11.93
2022-10-05T09:06:23.520Z,11.90
2022-10-05T09:09:14.562Z,12.03
2022-10-05T09:11:53.395Z,12.03
2022-10-05T09:14:39.065Z,11.97
2022-10-05T09:17:21.161Z,12.00
2022-10-05T09:20:15.146Z,11.93
2022-10-05T09:23:43.450Z,11.80
2022-10-05T09:26:28.641Z,11.87
2022-10-05T09:29:07.311Z,11.73
2022-10-05T09:32:06.710Z,11.93
2022-10-05T09:34:55.694Z,11.57
2022-10-05T09:37:38.523Z,12.30
2022-10-05T09:40:33.320Z,12.03
2022-10-05T09:43:16.024Z,11.90
2022-10-05T09:46:00.330Z,11.97
2022-10-05T09:48:42.046Z,11.90
2022-10-05T09:51:30.877Z,12.07
2022-10-05T09:54:22.197Z,11.90
2022-10-05T09:57:06.931Z,11.87
2022-10-05T10:00:11.024Z,12.23
2022-10-05T10:03:18.567Z,12.33
2022-10-05T10:06:05.419Z,12.10
2022-10-05T10:08:35.148Z,12.07
2022-10-05T10:11:19.143Z,12.27
2022-10-05T10:13:53.710Z,11.70
2022-10-05T10:16:53.689Z,12.20
2022-10-05T10:19:56.301Z,11.77
2022-10-05T10:22:58.222Z,11.90
2022-10-05T10:25:34.805Z,11.70
2022-10-05T10:28:14.055Z,12.00
2022-10-05T10:30:51.933Z,12.20
2022-10-05T10:33:37.723Z,12.50
2022-10-05T10:36:16.285Z,12.30
2022-10-05T10:39:10.220Z,12.17
2022-10-05T10:42:02.172Z,12.50
2022-10-05T10:44:34.903Z,12.40
2022-10-05T10:47:07.818Z,12.50
2022-10-05T10:50:05.646Z,12.40
2022-10-05T10:52:56.935Z,12.60
2022-10-05T10:55:32.520Z,12.63
2022-10-05T10:58:40.256Z,12.63
2022-10-05T11:01:22.136Z,12.13
2022-10-05T11:04:17.056Z,12.13
2022-10-05T11:07:04.483Z,12.40
2022-10-05T11:09:51.497Z,12.20
2022-10-05T11:12:40.242Z,11.97
2022-10-05T11:15:23.987Z,12.37
2022-10-05T11:18:01.915Z,12.37
2022-10-05T11:20:47.163Z,12.13
2022-10-05T11:23:37.962Z,12.00
2022-10-05T11:26:38.161Z,12.03
2022-10-05T11:29:23.709Z,12.20
2022-10-05T11:32:40.897Z,12.40
2022-10-05T11:35:20.560Z,12.10
2022-10-05T11:37:59.361Z,12.00
2022-10-05T11:40:47.774Z,12.13
2022-10-05T11:43:48.916Z,12.00
2022-10-05T11:47:12.673Z,12.43
2022-10-05T11:49:42.141Z,12.73
2022-10-05T11:52:08.896Z,11.83
2022-10-05T11:55:12.077Z,11.47
2022-10-05T11:57:59.003Z,11.80
2022-10-05T12:00:40.630Z,12.03
2022-10-05T12:03:27.860Z,12.60
2022-10-05T12:06:00.552Z,12.13
2022-10-05T12:08:27.423Z,12.33
2022-10-05T12:11:27.420Z,12.33
2022-10-05T12:14:04.772Z,12.53
2022-10-05T12:17:01.922Z,12.33
2022-10-05T12:19:36.634Z,12.30
2022-10-05T12:22:29.963Z,12.63
2022-10-05T12:25:04.641Z,12.40
2022-10-05T12:27:36.268Z,12.03
2022-10-05T12:30:18.603Z,12.77
2022-10-05T12:33:23.990Z,12.80
2022-10-05T12:36:06.424Z,11.90
2022-10-05T12:38:41.255Z,12.13
2022-10-05T12:41:21.390Z,12.30
2022-10-05T12:44:22.267Z,12.53
2022-10-05T12:47:00.947Z,12.93
2022-10-05T12:49:30.342Z,12.87
2022-10-05T12:52:06.675Z,12.43
2022-10-05T12:54:42.142Z,12.57
2022-10-05T12:57:34.309Z,12.47
2022-10-05T13:00:23.128Z,12.40
2022-10-05T13:02:58.104Z,12.40
2022-10-05T13:05:33.606Z,12.27
2022-10-05T13:08:28.260Z,12.50
2022-10-05T13:11:23.901Z,12.40
2022-10-05T13:14:16.504Z,12.30
2022-10-05T13:17:23.548Z,12.20
2022-10-05T13:19:58.326Z,12.50
2022-10-05T13:22:36.546Z,12.87
2022-10-05T13:25:17.483Z,12.10
2022-10-05T13:27:52.165Z,12.03
2022-10-05T13:30:22.514Z,12.67
2022-10-05T13:33:51.632Z,11.90
2022-10-05T13:36:57.872Z,11.97
2022-10-05T13:39:38.191Z,12.33
2022-10-05T13:42:12.349Z,12.00
2022-10-05T13:45:01.138Z,11.63
2022-10-05T13:47:38.910Z,11.97
2022-10-05T13:50:21.119Z,11.53
2022-10-05T13:53:01.698Z,11.43
2022-10-05T13:55:49.719Z,11.80
2022-10-05T13:58:28.489Z,11.27
2022-10-05T14:01:00.168Z,11.73
2022-10-05T14:03:31.349Z,12.00
2022-10-05T14:06:01.546Z,11.07
2022-10-05T14:08:33.613Z,12.07
2022-10-05T14:11:19.605Z,11.97
2022-10-05T14:13:47.998Z,11.63
2022-10-05T14:16:21.726Z,11.80
2022-10-05T14:19:03.796Z,12.00
2022-10-05T14:21:32.800Z,11.60
2022-10-05T14:24:39.450Z,12.20
2022-10-05T14:27:21.446Z,11.90
2022-10-05T14:30:09.464Z,11.60
2022-10-05T14:33:06.496Z,12.40
2022-10-05T14:35:49.663Z,12.13
2022-10-05T14:38:29.845Z,12.03
2022-10-05T14:41:25.424Z,11.90
2022-10-05T14:44:03.756Z,12.03
2022-10-05T14:46:33.011Z,12.37
2022-10-05T14:49:21.679Z,11.73
2022-10-05T14:51:51.579Z,12.33
2022-10-05T14:54:44.346Z,11.90
2022-10-05T14:57:39.457Z,12.00
2022-10-05T15:00:18.964Z,11.40
2022-10-05T15:03:07.584Z,11.70
2022-10-05T15:05:42.452Z,13.57
2022-10-05T15:08:12.040Z,13.03
2022-10-05T15:10:41.472Z,13.00
2022-10-05T15:13:19.283Z,13.17
2022-10-05T15:15:56.605Z,13.20
2022-10-05T15:18:50.914Z,13.07
2022-10-05T15:21:42.359Z,12.60
2022-10-05T15:24:17.392Z,12.43
2022-10-05T15:27:00.800Z,12.97
2022-10-05T15:29:42.881Z,12.83
2022-10-05T15:32:21.616Z,12.80
2022-10-05T15:35:25.786Z,13.13
2022-10-05T15:38:18.776Z,12.33
2022-10-05T15:40:54.857Z,12.77
2022-10-05T15:43:23.312Z,13.30
2022-10-05T15:46:07.014Z,13.07
2022-10-05T15:48:48.440Z,12.43
2022-10-05T15:51:35.604Z,12.70
2022-10-05T15:54:43.957Z,12.73
2022-10-05T15:57:29.418Z,12.50
2022-10-05T16:00:23.061Z,11.77
2022-10-05T16:03:13.075Z,12.13
2022-10-05T16:06:18.547Z,12.03
2022-10-05T16:09:24.581Z,12.13
2022-10-05T16:11:59.762Z,12.03
2022-10-05T16:14:38.681Z,12.53
2022-10-05T16:17:26.977Z,11.37
2022-10-05T16:20:30.977Z,12.23
2022-10-05T16:23:06.968Z,12.20
2022-10-05T16:25:40.125Z,11.90
2022-10-05T16:28:12.992Z,11.77
2022-10-05T16:30:42.930Z,12.23
2022-10-05T16:33:29.272Z,12.77
2022-10-05T16:35:58.897Z,13.07
2022-10-05T16:39:00.158Z,12.70
2022-10-05T16:41:49.444Z,13.07
2022-10-05T16:44:42.744Z,12.57
2022-10-05T16:47:28.264Z,13.00
2022-10-05T16:50:13.603Z,13.23
2022-10-05T16:52:44.779Z,12.83
2022-10-05T16:55:21.101Z,13.13
2022-10-05T16:57:56.797Z,13.10
2022-10-05T17:00:45.208Z,12.80
2022-10-05T17:03:34.587Z,12.90
2022-10-05T17:06:39.015Z,13.10
2022-10-05T17:09:30.669Z,13.03
2022-10-05T17:12:03.574Z,13.20
2022-10-05T17:15:06.661Z,13.17
2022-10-05T17:18:01.858Z,12.87
2022-10-05T17:20:42.880Z,12.30
2022-10-05T17:23:51.372Z,12.60
2022-10-05T17:26:36.797Z,12.03
2022-10-05T17:29:14.489Z,11.37
2022-10-05T17:32:33.501Z,11.70
2022-10-05T17:35:03.072Z,12.57
2022-10-05T17:37:36.187Z,13.00
2022-10-05T17:40:30.991Z,12.57
2022-10-05T17:43:01.331Z,12.47
2022-10-05T17:45:34.172Z,12.43
2022-10-05T17:48:06.262Z,12.47
2022-10-05T17:50:59.224Z,12.70
2022-10-05T17:54:02.456Z,12.77
2022-10-05T17:56:47.989Z,13.27
2022-10-05T17:59:46.635Z,13.30
2022-10-05T18:02:19.517Z,13.37
2022-10-05T18:05:00.117Z,13.23
2022-10-05T18:07:27.907Z,12.67
2022-10-05T18:10:09.909Z,12.70
2022-10-05T18:12:36.858Z,12.37
2022-10-05T18:15:06.440Z,11.97
2022-10-05T18:17:46.711Z,12.60
2022-10-05T18:20:31.617Z,12.40
2022-10-05T18:23:07.173Z,12.83
2022-10-05T18:25:40.384Z,12.73
2022-10-05T18:28:31.763Z,12.20
2022-10-05T18:31:04.376Z,12.17
2022-10-05T18:33:40.570Z,12.40
2022-10-05T18:36:22.682Z,12.17
2022-10-05T18:38:53.115Z,11.90
2022-10-05T18:41:20.099Z,12.27
2022-10-05T18:44:02.301Z,12.10
2022-10-05T18:46:38.065Z,12.30
2022-10-05T18:49:36.247Z,12.03
2022-10-05T18:52:03.368Z,13.27
2022-10-05T18:54:54.981Z,12.57
2022-10-05T18:57:42.811Z,12.43
2022-10-05T19:00:19.726Z,13.00
2022-10-05T19:02:57.154Z,12.43
2022-10-05T19:05:48.809Z,12.20
2022-10-05T19:08:37.876Z,11.67
2022-10-05T19:11:18.200Z,11.83
2022-10-05T19:14:14.200Z,12.50
2022-10-05T19:16:43.685Z,12.27
2022-10-05T19:19:44.003Z,12.47
2022-10-05T19:22:42.223Z,11.60
2022-10-05T19:25:25.723Z,12.60
2022-10-05T19:28:18.537Z,12.53
2022-10-05T19:31:13.150Z,12.57
2022-10-05T19:33:55.399Z,12.43
2022-10-05T19:36:32.890Z,12.37
2022-10-05T19:39:37.236Z,12.60
2022-10-05T19:42:17.157Z,12.13
2022-10-05T19:45:21.528Z,12.50
2022-10-05T19:48:08.541Z,11.63
2022-10-05T19:50:38.503Z,12.50
2022-10-05T19:53:22.758Z,12.40
2022-10-05T19:55:49.722Z,12.87
2022-10-05T19:58:24.149Z,13.03
2022-10-05T20:00:58.444Z,12.47
2022-10-05T20:03:30.582Z,12.67
2022-10-05T20:06:00.114Z,12.80
2022-10-05T20:08:36.396Z,12.53
2022-10-05T20:11:10.644Z,12.93
2022-10-05T20:13:40.031Z,12.40
2022-10-05T20:16:49.841Z,12.40
2022-10-05T20:19:50.434Z,12.10
2022-10-05T20:22:25.189Z,12.50
2022-10-05T20:24:54.776Z,12.63
2022-10-05T20:27:39.764Z,12.17
2022-10-05T20:30:08.873Z,12.50
2022-10-05T20:32:35.711Z,12.23
2022-10-05T20:35:03.033Z,12.13
2022-10-05T20:37:30.178Z,13.60
2022-10-05T20:39:57.032Z,12.30
2022-10-05T20:42:24.117Z,11.93
2022-10-05T20:44:56.539Z,12.23
2022-10-05T20:47:24.445Z,12.33
2022-10-05T20:49:53.465Z,12.30
2022-10-05T20:52:23.182Z,12.67
2022-10-05T20:54:54.014Z,12.50
2022-10-05T20:57:21.375Z,12.53
2022-10-05T20:59:48.249Z,12.57
2022-10-05T21:02:15.106Z,12.23
2022-10-05T21:04:46.804Z,12.40
2022-10-05T21:07:16.008Z,12.20
2022-10-05T21:09:44.701Z,12.37
2022-10-05T21:12:11.612Z,12.10
2022-10-05T21:14:38.900Z,12.03
2022-10-05T21:17:06.795Z,12.63
2022-10-05T21:19:38.432Z,12.60
2022-10-05T21:22:07.579Z,12.13
2022-10-05T21:24:39.105Z,12.67
2022-10-05T21:27:06.720Z,12.97
2022-10-05T21:29:35.311Z,12.90
2022-10-05T21:32:02.513Z,13.40
2022-10-05T21:34:29.616Z,12.03
2022-10-05T21:36:56.505Z,12.03
2022-10-05T21:39:24.780Z,12.60
2022-10-05T21:41:51.751Z,12.40
2022-10-05T21:44:18.981Z,12.37
2022-10-05T21:46:46.955Z,12.40
2022-10-05T21:49:17.597Z,12.40
2022-10-05T21:51:47.303Z,12.33
2022-10-05T21:54:17.230Z,12.03
2022-10-05T21:56:48.367Z,11.93
2022-10-05T21:59:18.860Z,11.60
2022-10-05T22:01:46.018Z,11.90
2022-10-05T22:04:12.961Z,11.70
2022-10-05T22:06:40.389Z,11.97
2022-10-05T22:09:07.201Z,11.70
2022-10-05T22:11:34.020Z,11.60
2022-10-05T22:14:03.572Z,11.63
2022-10-05T22:16:33.966Z,11.80
2022-10-05T22:19:13.880Z,11.87
2022-10-05T22:21:41.955Z,12.20
2022-10-05T22:24:11.533Z,12.00
2022-10-05T22:26:40.139Z,12.40
2022-10-05T22:29:07.135Z,12.13
2022-10-05T22:31:34.165Z,11.80
2022-10-05T22:34:01.065Z,12.60
2022-10-05T22:36:28.059Z,12.07
2022-10-05T22:38:54.965Z,12.07
2022-10-05T22:41:21.841Z,12.47
2022-10-05T22:43:50.226Z,12.10
2022-10-05T22:46:17.772Z,12.27
2022-10-05T22:48:44.671Z,12.53
2022-10-05T22:51:11.656Z,12.33
2022-10-05T22:53:38.634Z,12.50
2022-10-05T22:56:08.101Z,12.00
2022-10-05T22:58:35.814Z,12.03
2022-10-05T23:01:08.492Z,12.13
2022-10-05T23:03:35.633Z,12.17
2022-10-05T23:06:05.238Z,12.13
2022-10-05T23:08:33.300Z,12.33
2022-10-05T23:11:04.161Z,12.17
2022-10-05T23:13:31.650Z,12.10
2022-10-05T23:15:59.006Z,12.07
2022-10-05T23:18:26.437Z,12.27
2022-10-05T23:20:55.293Z,12.37
2022-10-05T23:23:23.376Z,12.40
2022-10-05T23:25:50.574Z,12.03
2022-10-05T23:28:17.670Z,12.13
2022-10-05T23:30:44.827Z,12.00
2022-10-05T23:33:11.642Z,11.73
2022-10-05T23:35:38.515Z,11.70
2022-10-05T23:38:05.375Z,11.93
2022-10-05T23:40:32.145Z,11.87
2022-10-05T23:42:58.985Z,12.00
2022-10-05T23:45:25.776Z,11.93
2022-10-05T23:47:52.794Z,11.97
2022-10-05T23:50:21.161Z,12.00
